createdAt,value
2017-06-16T00:01:26.938Z,67.60
2017-06-16T00:03:53.289Z,67.90
2017-06-16T00:06:19.608Z,68.10
2017-06-16T00:08:45.976Z,68.20
2017-06-16T00:11:12.316Z,68.20
2017-06-16T00:13:38.645Z,68.30
2017-06-16T00:16:05.011Z,68.50
2017-06-16T00:18:31.347Z,68.80
2017-06-16T00:20:57.699Z,68.80
2017-06-16T00:23:24.026Z,68.80
2017-06-16T00:25:50.379Z,68.90
2017-06-16T00:28:17.443Z,69.30
2017-06-16T00:30:43.783Z,69.30
2017-06-16T00:33:10.111Z,69.10
2017-06-16T00:35:36.457Z,68.90
2017-06-16T00:38:02.779Z,68.90
2017-06-16T00:40:29.152Z,68.80
2017-06-16T00:42:55.476Z,69.10
2017-06-16T00:45:21.799Z,68.90
2017-06-16T00:47:48.153Z,68.60
2017-06-16T00:50:14.494Z,68.10
2017-06-16T00:52:41.586Z,68.30
2017-06-16T00:55:07.912Z,67.90
2017-06-16T00:57:34.268Z,67.90
2017-06-16T01:00:00.594Z,67.70
2017-06-16T01:02:26.949Z,67.30
2017-06-16T01:04:53.277Z,67.30
2017-06-16T01:07:19.676Z,67.10
2017-06-16T01:09:46.001Z,66.60
2017-06-16T01:12:12.333Z,66.50
2017-06-16T01:14:38.683Z,65.90
2017-06-16T01:17:05.029Z,65.50
2017-06-16T01:19:31.384Z,65.00
2017-06-16T01:21:58.443Z,65.50
2017-06-16T01:24:25.541Z,64.60
2017-06-16T01:26:51.874Z,64.60
2017-06-16T01:29:18.220Z,64.50
2017-06-16T01:31:44.573Z,64.40
2017-06-16T01:34:11.664Z,64.20
2017-06-16T01:36:38.038Z,64.20
2017-06-16T01:39:04.387Z,64.30
2017-06-16T01:41:31.505Z,64.50
2017-06-16T01:43:57.865Z,64.50
2017-06-16T01:46:24.999Z,64.10
2017-06-16T01:48:51.340Z,64.10
2017-06-16T01:51:17.698Z,64.00
2017-06-16T01:53:44.054Z,63.90
2017-06-16T01:56:10.411Z,63.90
2017-06-16T01:58:36.730Z,64.10
2017-06-16T02:01:03.081Z,63.90
2017-06-16T02:03:29.437Z,64.10
2017-06-16T02:05:56.505Z,65.00
2017-06-16T02:08:22.852Z,64.30
2017-06-16T02:10:49.183Z,64.00
2017-06-16T02:13:15.532Z,63.70
2017-06-16T02:15:41.865Z,63.80
2017-06-16T02:18:08.236Z,63.50
2017-06-16T02:20:35.312Z,63.10
2017-06-16T02:23:01.691Z,63.10
2017-06-16T02:25:28.043Z,63.00
2017-06-16T02:27:55.132Z,63.30
2017-06-16T02:30:21.488Z,63.30
2017-06-16T02:32:47.822Z,63.20
2017-06-16T02:35:14.178Z,63.30
2017-06-16T02:37:40.515Z,63.40
2017-06-16T02:40:07.614Z,63.10
2017-06-16T02:42:33.944Z,63.10
2017-06-16T02:45:07.210Z,62.90
2017-06-16T02:47:33.544Z,62.80
2017-06-16T02:49:59.887Z,62.80
2017-06-16T02:52:26.215Z,63.10
2017-06-16T02:54:52.587Z,62.90
2017-06-16T02:57:18.923Z,62.80
2017-06-16T02:59:45.259Z,62.70
2017-06-16T03:02:11.607Z,62.40
2017-06-16T03:04:38.688Z,62.10
2017-06-16T03:07:05.033Z,62.00
2017-06-16T03:09:31.386Z,61.90
2017-06-16T03:11:57.741Z,61.90
2017-06-16T03:14:24.064Z,61.80
2017-06-16T03:16:50.449Z,61.30
2017-06-16T03:19:16.785Z,61.30
2017-06-16T03:21:49.311Z,61.10
2017-06-16T03:24:30.566Z,60.70
2017-06-16T03:26:56.932Z,59.80
2017-06-16T03:29:24.013Z,59.60
2017-06-16T03:31:50.333Z,59.60
2017-06-16T03:34:16.683Z,59.20
2017-06-16T03:36:43.005Z,58.50
2017-06-16T03:39:09.355Z,58.50
2017-06-16T03:41:35.688Z,58.20
2017-06-16T03:44:02.044Z,57.90
2017-06-16T03:46:28.366Z,57.80
2017-06-16T03:48:54.716Z,57.50
2017-06-16T03:51:21.805Z,57.70
2017-06-16T03:53:48.148Z,57.00
2017-06-16T03:56:14.478Z,56.70
2017-06-16T03:58:40.825Z,56.60
2017-06-16T04:01:07.153Z,56.00
2017-06-16T04:03:33.520Z,56.00
2017-06-16T04:05:59.851Z,56.20
2017-06-16T04:08:26.917Z,56.40
2017-06-16T04:10:54.013Z,55.40
2017-06-16T04:13:20.335Z,55.40
2017-06-16T04:15:46.686Z,55.60
2017-06-16T04:18:13.035Z,55.50
2017-06-16T04:20:39.388Z,55.30
2017-06-16T04:23:06.460Z,55.20
2017-06-16T04:25:32.805Z,55.20
2017-06-16T04:27:59.134Z,55.20
2017-06-16T04:30:25.497Z,55.20
2017-06-16T04:32:51.825Z,55.40
2017-06-16T04:35:18.172Z,55.20
2017-06-16T04:37:45.257Z,55.70
2017-06-16T04:40:11.592Z,55.20
2017-06-16T04:42:37.928Z,55.30
2017-06-16T04:45:11.215Z,55.20
2017-06-16T04:47:44.521Z,54.80
2017-06-16T04:50:10.853Z,55.70
2017-06-16T04:52:37.200Z,55.30
2017-06-16T04:55:03.521Z,55.20
2017-06-16T04:57:29.888Z,55.10
2017-06-16T04:59:56.212Z,55.10
2017-06-16T05:02:22.578Z,54.80
2017-06-16T05:04:48.931Z,54.50
2017-06-16T05:07:15.257Z,54.30
2017-06-16T05:09:41.608Z,54.30
2017-06-16T05:12:07.936Z,54.70
2017-06-16T05:14:34.288Z,55.00
2017-06-16T05:17:00.639Z,54.90
2017-06-16T05:19:26.983Z,54.50
2017-06-16T05:21:54.089Z,54.60
2017-06-16T05:24:20.450Z,54.60
2017-06-16T05:26:47.528Z,55.40
2017-06-16T05:29:13.898Z,54.70
2017-06-16T05:31:40.239Z,54.80
2017-06-16T05:34:06.599Z,55.30
2017-06-16T05:36:33.684Z,55.20
2017-06-16T05:39:00.016Z,55.20
2017-06-16T05:41:26.363Z,54.60
2017-06-16T05:43:52.712Z,54.80
2017-06-16T05:46:19.065Z,54.70
2017-06-16T05:48:46.136Z,53.00
2017-06-16T05:51:12.485Z,53.20
2017-06-16T05:53:38.804Z,53.00
2017-06-16T05:56:05.151Z,53.00
2017-06-16T05:58:31.481Z,52.00
2017-06-16T06:00:57.840Z,52.40
2017-06-16T06:03:24.174Z,52.70
2017-06-16T06:05:50.523Z,53.80
2017-06-16T06:08:16.865Z,54.30
2017-06-16T06:10:43.975Z,54.70
2017-06-16T06:13:10.302Z,54.70
2017-06-16T06:15:36.628Z,54.90
2017-06-16T06:18:03.000Z,55.20
2017-06-16T06:20:30.074Z,55.20
2017-06-16T06:22:56.415Z,54.50
2017-06-16T06:25:22.735Z,53.50
2017-06-16T06:27:49.087Z,54.50
2017-06-16T06:30:15.419Z,54.50
2017-06-16T06:32:41.769Z,54.10
2017-06-16T06:35:08.096Z,52.80
2017-06-16T06:37:34.470Z,52.80
2017-06-16T06:40:01.543Z,53.50
2017-06-16T06:42:27.872Z,53.50
2017-06-16T06:44:54.240Z,53.30
2017-06-16T06:47:20.567Z,52.00
2017-06-16T06:49:46.919Z,50.90
2017-06-16T06:52:13.243Z,50.80
2017-06-16T06:54:39.585Z,50.80
2017-06-16T06:57:05.914Z,50.80
2017-06-16T06:59:32.245Z,51.70
2017-06-16T07:01:58.592Z,52.00
2017-06-16T07:04:25.658Z,51.80
2017-06-16T07:06:52.009Z,51.30
2017-06-16T07:09:18.351Z,51.10
2017-06-16T07:11:44.709Z,50.80
2017-06-16T07:14:11.036Z,50.90
2017-06-16T07:16:37.404Z,49.00
2017-06-16T07:19:04.484Z,47.60
2017-06-16T07:21:30.837Z,47.60
2017-06-16T07:23:57.171Z,48.70
2017-06-16T07:26:23.500Z,49.40
2017-06-16T07:28:49.852Z,48.70
2017-06-16T07:31:16.191Z,48.00
2017-06-16T07:33:42.540Z,46.90
2017-06-16T07:36:09.612Z,46.90
2017-06-16T07:38:35.959Z,46.90
2017-06-16T07:41:02.328Z,47.90
2017-06-16T07:43:28.707Z,47.40
2017-06-16T07:45:55.033Z,48.50
2017-06-16T07:48:21.364Z,48.90
2017-06-16T07:50:47.708Z,48.90
2017-06-16T07:53:14.048Z,47.20
2017-06-16T07:55:40.460Z,46.00
2017-06-16T07:58:06.792Z,48.50
2017-06-16T08:00:33.141Z,49.40
2017-06-16T08:02:59.467Z,48.20
2017-06-16T08:05:25.820Z,48.00
2017-06-16T08:07:52.147Z,48.60
2017-06-16T08:10:18.524Z,48.40
2017-06-16T08:12:45.591Z,46.30
2017-06-16T08:15:11.922Z,46.30
2017-06-16T08:17:38.292Z,46.70
2017-06-16T08:20:04.614Z,45.60
2017-06-16T08:22:30.957Z,46.50
2017-06-16T08:24:57.299Z,46.60
2017-06-16T08:27:23.644Z,46.30
2017-06-16T08:29:50.714Z,45.30
2017-06-16T08:32:17.059Z,45.30
2017-06-16T08:34:43.384Z,44.90
2017-06-16T08:37:09.734Z,44.80
2017-06-16T08:39:36.068Z,44.40
2017-06-16T08:42:02.412Z,44.90
2017-06-16T08:44:28.728Z,46.30
2017-06-16T08:46:55.093Z,46.10
2017-06-16T08:49:21.411Z,44.40
2017-06-16T08:51:47.728Z,43.00
2017-06-16T08:54:14.081Z,42.40
2017-06-16T08:56:40.412Z,42.30
2017-06-16T08:59:06.764Z,42.00
2017-06-16T09:01:33.838Z,44.00
2017-06-16T09:04:01.828Z,44.00
2017-06-16T09:06:28.158Z,42.90
2017-06-16T09:08:54.482Z,42.20
2017-06-16T09:11:20.787Z,43.00
2017-06-16T09:13:47.116Z,43.00
2017-06-16T09:16:14.194Z,42.00
2017-06-16T09:18:40.548Z,42.00
2017-06-16T09:21:06.872Z,42.60
2017-06-16T09:23:33.183Z,40.20
2017-06-16T09:25:59.543Z,42.40
2017-06-16T09:28:25.870Z,42.90
2017-06-16T09:30:52.203Z,39.30
2017-06-16T09:33:18.542Z,39.40
2017-06-16T09:35:44.907Z,40.60
2017-06-16T09:38:11.976Z,40.10
2017-06-16T09:40:38.323Z,40.10
2017-06-16T09:43:04.636Z,39.00
2017-06-16T09:45:30.997Z,39.80
2017-06-16T09:47:57.304Z,39.90
2017-06-16T09:50:23.652Z,39.80
2017-06-16T09:52:49.964Z,38.70
2017-06-16T09:55:16.320Z,39.90
2017-06-16T09:57:42.637Z,40.00
2017-06-16T10:00:08.958Z,38.70
2017-06-16T10:02:35.292Z,39.50
2017-06-16T10:05:01.608Z,39.00
2017-06-16T10:07:27.937Z,40.80
2017-06-16T10:09:54.250Z,40.80
2017-06-16T10:12:21.327Z,42.30
2017-06-16T10:14:47.646Z,42.30
2017-06-16T10:17:14.004Z,42.10
2017-06-16T10:19:40.321Z,40.40
2017-06-16T10:22:06.656Z,42.60
2017-06-16T10:24:32.967Z,41.60
2017-06-16T10:26:59.307Z,42.40
2017-06-16T10:29:25.623Z,43.10
2017-06-16T10:31:51.963Z,42.30
2017-06-16T10:34:18.283Z,40.10
2017-06-16T10:36:44.600Z,42.90
2017-06-16T10:39:11.676Z,42.30
2017-06-16T10:41:37.997Z,42.30
2017-06-16T10:44:04.331Z,42.80
2017-06-16T10:46:30.651Z,41.00
2017-06-16T10:48:56.991Z,42.60
2017-06-16T10:51:23.312Z,40.80
2017-06-16T10:53:49.650Z,41.50
2017-06-16T10:56:15.975Z,41.00
2017-06-16T10:58:42.317Z,41.70
2017-06-16T11:01:08.640Z,39.90
2017-06-16T11:03:34.970Z,40.40
2017-06-16T11:06:01.289Z,41.90
2017-06-16T11:08:28.342Z,40.80
2017-06-16T11:10:54.671Z,40.80
2017-06-16T11:13:21.736Z,40.90
2017-06-16T11:15:48.084Z,40.90
2017-06-16T11:18:14.427Z,42.40
2017-06-16T11:20:40.795Z,41.40
2017-06-16T11:23:07.852Z,41.40
2017-06-16T11:25:34.934Z,41.10
2017-06-16T11:28:01.245Z,41.00
2017-06-16T11:30:27.580Z,41.50
2017-06-16T11:32:53.888Z,41.80
2017-06-16T11:35:20.990Z,40.50
2017-06-16T11:37:47.308Z,40.40
2017-06-16T11:40:13.624Z,40.00
2017-06-16T11:42:39.955Z,40.40
2017-06-16T11:45:06.274Z,40.50
2017-06-16T11:47:32.602Z,42.10
2017-06-16T11:49:58.960Z,41.30
2017-06-16T11:52:25.340Z,39.80
2017-06-16T11:54:51.699Z,38.10
2017-06-16T11:57:18.088Z,38.90
2017-06-16T11:59:44.408Z,39.80
2017-06-16T12:02:10.759Z,40.20
2017-06-16T12:04:37.082Z,41.40
2017-06-16T12:07:03.437Z,39.60
2017-06-16T12:09:30.498Z,41.00
2017-06-16T12:11:56.812Z,40.90
2017-06-16T12:14:23.891Z,39.20
2017-06-16T12:16:50.241Z,39.20
2017-06-16T12:19:16.577Z,38.70
2017-06-16T12:21:42.897Z,40.00
2017-06-16T12:24:09.231Z,40.00
2017-06-16T12:26:35.525Z,39.20
2017-06-16T12:29:02.601Z,40.70
2017-06-16T12:31:28.903Z,40.70
2017-06-16T12:33:55.987Z,41.20
2017-06-16T12:36:22.298Z,41.10
2017-06-16T12:38:48.604Z,39.60
2017-06-16T12:41:15.672Z,39.60
2017-06-16T12:43:42.006Z,39.60
2017-06-16T12:46:08.363Z,40.10
2017-06-16T12:48:34.674Z,40.40
2017-06-16T12:51:01.002Z,41.10
2017-06-16T12:53:27.307Z,41.10
2017-06-16T12:55:54.380Z,38.70
2017-06-16T12:58:20.704Z,38.70
2017-06-16T13:00:47.023Z,40.20
2017-06-16T13:03:13.340Z,41.10
2017-06-16T13:05:40.406Z,39.80
2017-06-16T13:08:06.718Z,39.70
2017-06-16T13:10:33.766Z,40.10
2017-06-16T13:13:00.836Z,38.90
2017-06-16T13:15:27.144Z,38.80
2017-06-16T13:17:54.252Z,40.60
2017-06-16T13:20:20.568Z,40.50
2017-06-16T13:22:46.911Z,40.80
2017-06-16T13:25:13.228Z,38.50
2017-06-16T13:27:39.575Z,39.30
2017-06-16T13:30:05.893Z,39.30
2017-06-16T13:32:32.230Z,41.50
2017-06-16T13:34:58.549Z,37.50
2017-06-16T13:37:24.904Z,38.10
2017-06-16T13:39:51.219Z,40.90
2017-06-16T13:42:17.532Z,41.10
2017-06-16T13:44:43.871Z,39.10
2017-06-16T13:47:10.188Z,39.60
2017-06-16T13:49:36.534Z,41.00
2017-06-16T13:52:02.848Z,40.70
2017-06-16T13:54:29.191Z,40.10
2017-06-16T13:56:55.544Z,40.40
2017-06-16T13:59:21.884Z,39.20
2017-06-16T14:01:48.206Z,39.20
2017-06-16T14:04:14.544Z,39.80
2017-06-16T14:06:40.856Z,40.00
2017-06-16T14:09:07.200Z,39.40
2017-06-16T14:11:33.520Z,40.00
2017-06-16T14:13:59.851Z,39.80
2017-06-16T14:16:26.186Z,40.60
2017-06-16T14:18:52.547Z,40.00
2017-06-16T14:21:18.862Z,40.10
2017-06-16T14:23:45.175Z,40.40
2017-06-16T14:26:11.515Z,40.20
2017-06-16T14:28:37.828Z,39.90
2017-06-16T14:31:04.163Z,39.40
2017-06-16T14:33:30.469Z,40.10
2017-06-16T14:35:56.816Z,40.90
2017-06-16T14:38:23.127Z,40.60
2017-06-16T14:40:49.464Z,40.50
2017-06-16T14:43:15.783Z,40.40
2017-06-16T14:45:42.116Z,39.80
2017-06-16T14:48:08.455Z,39.70
2017-06-16T14:50:34.809Z,40.10
2017-06-16T14:53:01.138Z,39.90
2017-06-16T14:55:27.489Z,39.50
2017-06-16T14:57:53.832Z,39.30
2017-06-16T15:00:20.152Z,39.50
2017-06-16T15:02:46.491Z,39.60
2017-06-16T15:05:12.798Z,38.60
2017-06-16T15:07:39.140Z,39.70
2017-06-16T15:10:05.459Z,39.70
2017-06-16T15:12:31.803Z,40.60
2017-06-16T15:14:58.127Z,40.40
2017-06-16T15:17:24.492Z,39.80
2017-06-16T15:19:51.553Z,39.00
2017-06-16T15:22:23.857Z,38.90
2017-06-16T15:24:50.183Z,38.30
2017-06-16T15:27:16.515Z,38.30
2017-06-16T15:29:42.836Z,39.60
2017-06-16T15:32:09.231Z,38.40
2017-06-16T15:34:36.292Z,40.80
2017-06-16T15:37:03.344Z,39.00
2017-06-16T15:39:29.675Z,39.00
2017-06-16T15:41:55.990Z,38.60
2017-06-16T15:44:23.076Z,38.60
2017-06-16T15:46:49.383Z,38.60
2017-06-16T15:49:15.718Z,38.40
2017-06-16T15:51:42.038Z,38.80
2017-06-16T15:54:09.116Z,39.10
2017-06-16T15:56:35.425Z,39.10
2017-06-16T15:59:01.764Z,38.20
2017-06-16T16:01:28.083Z,39.20
2017-06-16T16:03:54.430Z,38.90
2017-06-16T16:06:20.749Z,38.70
2017-06-16T16:08:47.068Z,39.40
2017-06-16T16:11:14.155Z,39.90
2017-06-16T16:13:40.472Z,39.80
2017-06-16T16:16:06.823Z,39.80
2017-06-16T16:18:33.126Z,40.00
2017-06-16T16:20:59.466Z,40.30
2017-06-16T16:23:25.779Z,40.40
2017-06-16T16:25:52.109Z,40.10
2017-06-16T16:28:18.413Z,40.60
2017-06-16T16:30:44.747Z,40.60
2017-06-16T16:33:11.811Z,39.40
2017-06-16T16:35:38.868Z,40.40
2017-06-16T16:38:05.199Z,40.40
2017-06-16T16:40:31.492Z,40.20
2017-06-16T16:42:57.831Z,39.50
2017-06-16T16:45:31.000Z,40.00
2017-06-16T16:47:57.332Z,40.90
2017-06-16T16:50:23.640Z,40.60
2017-06-16T16:52:49.983Z,40.80
2017-06-16T16:55:16.291Z,40.80
2017-06-16T16:57:42.622Z,41.20
2017-06-16T17:00:08.923Z,41.90
2017-06-16T17:02:35.235Z,41.00
2017-06-16T17:05:01.576Z,40.80
2017-06-16T17:07:28.625Z,41.10
2017-06-16T17:09:55.692Z,41.00
2017-06-16T17:12:22.000Z,41.00
2017-06-16T17:14:49.072Z,41.00
2017-06-16T17:17:15.405Z,41.00
2017-06-16T17:19:41.748Z,41.50
2017-06-16T17:22:08.064Z,41.70
2017-06-16T17:24:34.386Z,42.30
2017-06-16T17:27:00.714Z,42.60
2017-06-16T17:29:27.045Z,42.30
2017-06-16T17:31:53.392Z,42.30
2017-06-16T17:34:19.714Z,42.20
2017-06-16T17:36:46.063Z,42.40
2017-06-16T17:39:12.369Z,42.20
2017-06-16T17:41:38.709Z,43.00
2017-06-16T17:44:05.023Z,42.90
2017-06-16T17:46:32.115Z,41.90
2017-06-16T17:49:05.390Z,41.90
2017-06-16T17:51:31.735Z,42.20
2017-06-16T17:53:58.055Z,41.80
2017-06-16T17:56:24.368Z,41.90
2017-06-16T17:58:50.716Z,42.00
2017-06-16T18:01:17.029Z,42.00
2017-06-16T18:03:43.380Z,41.80
2017-06-16T18:06:09.696Z,42.30
2017-06-16T18:08:36.039Z,42.40
2017-06-16T18:11:10.011Z,42.40
2017-06-16T18:13:37.090Z,42.70
2017-06-16T18:16:03.440Z,43.20
2017-06-16T18:18:29.786Z,43.00
2017-06-16T18:20:56.143Z,42.80
2017-06-16T18:23:22.504Z,42.70
2017-06-16T18:25:48.821Z,42.60
2017-06-16T18:28:15.869Z,43.10
2017-06-16T18:30:42.206Z,43.10
2017-06-16T18:33:08.515Z,43.40
2017-06-16T18:35:34.856Z,43.30
2017-06-16T18:38:01.903Z,43.70
2017-06-16T18:40:28.968Z,44.00
2017-06-16T18:42:55.276Z,44.00
2017-06-16T18:45:22.390Z,44.10
2017-06-16T18:47:48.703Z,44.10
2017-06-16T18:50:15.032Z,43.90
2017-06-16T18:52:41.335Z,44.30
2017-06-16T18:55:07.662Z,44.10
2017-06-16T18:57:33.979Z,44.10
2017-06-16T19:00:01.098Z,44.50
2017-06-16T19:02:27.402Z,44.50
2017-06-16T19:04:53.716Z,44.60
2017-06-16T19:07:20.039Z,44.80
2017-06-16T19:09:46.347Z,45.20
2017-06-16T19:12:13.421Z,45.00
2017-06-16T19:14:39.724Z,45.00
2017-06-16T19:17:06.803Z,45.30
2017-06-16T19:19:33.105Z,45.30
2017-06-16T19:22:00.172Z,45.50
2017-06-16T19:24:26.467Z,45.50
2017-06-16T19:26:52.810Z,45.50
2017-06-16T19:29:19.854Z,45.80
2017-06-16T19:31:46.155Z,45.80
2017-06-16T19:34:12.480Z,45.90
2017-06-16T19:36:38.816Z,45.70
2017-06-16T19:39:05.147Z,46.00
2017-06-16T19:41:31.457Z,46.20
2017-06-16T19:43:57.788Z,46.10
2017-06-16T19:46:24.088Z,46.30
2017-06-16T19:48:50.420Z,46.20
2017-06-16T19:51:16.732Z,46.30
2017-06-16T19:53:43.816Z,46.80
2017-06-16T19:56:10.131Z,46.80
2017-06-16T19:58:36.478Z,47.00
2017-06-16T20:01:02.787Z,46.80
2017-06-16T20:03:29.096Z,46.60
2017-06-16T20:05:56.158Z,46.80
2017-06-16T20:08:23.212Z,46.90
2017-06-16T20:10:49.547Z,47.50
2017-06-16T20:13:15.868Z,47.10
2017-06-16T20:15:42.946Z,47.20
2017-06-16T20:18:09.286Z,47.20
2017-06-16T20:20:35.645Z,46.90
2017-06-16T20:23:01.966Z,47.20
2017-06-16T20:25:28.306Z,47.40
2017-06-16T20:27:54.649Z,47.60
2017-06-16T20:30:21.019Z,47.60
2017-06-16T20:32:47.339Z,47.70
2017-06-16T20:35:13.652Z,47.90
2017-06-16T20:37:40.730Z,47.70
2017-06-16T20:40:07.108Z,47.70
2017-06-16T20:42:33.447Z,47.90
2017-06-16T20:44:59.765Z,47.80
2017-06-16T20:47:26.102Z,48.00
2017-06-16T20:49:52.407Z,48.00
2017-06-16T20:52:18.735Z,48.10
2017-06-16T20:54:45.044Z,48.10
2017-06-16T20:57:11.403Z,48.20
2017-06-16T20:59:37.708Z,48.20
2017-06-16T21:02:04.020Z,48.20
2017-06-16T21:04:30.354Z,48.40
2017-06-16T21:06:56.679Z,48.60
2017-06-16T21:09:23.016Z,48.70
2017-06-16T21:11:49.335Z,48.70
2017-06-16T21:14:16.420Z,49.10
2017-06-16T21:16:42.804Z,49.10
2017-06-16T21:19:09.146Z,49.10
2017-06-16T21:21:36.864Z,48.90
2017-06-16T21:24:03.295Z,48.90
2017-06-16T21:26:30.040Z,49.30
2017-06-16T21:28:56.383Z,49.20
2017-06-16T21:31:22.772Z,49.10
2017-06-16T21:33:49.399Z,49.30
2017-06-16T21:36:16.278Z,49.50
2017-06-16T21:38:42.913Z,49.70
2017-06-16T21:41:10.287Z,49.50
2017-06-16T21:43:37.030Z,49.50
2017-06-16T21:46:04.075Z,49.50
2017-06-16T21:48:31.856Z,49.80
2017-06-16T21:50:59.027Z,49.80
2017-06-16T21:53:32.651Z,49.80
2017-06-16T21:55:59.066Z,49.80
2017-06-16T21:58:25.694Z,50.20
2017-06-16T22:00:52.211Z,50.00
2017-06-16T22:03:19.633Z,50.40
2017-06-16T22:05:45.956Z,50.40
2017-06-16T22:08:12.896Z,50.60
2017-06-16T22:10:39.302Z,50.50
2017-06-16T22:13:05.644Z,50.00
2017-06-16T22:15:31.950Z,50.30
2017-06-16T22:17:58.321Z,50.20
2017-06-16T22:20:24.675Z,50.40
2017-06-16T22:22:51.130Z,50.30
2017-06-16T22:25:19.041Z,49.90
2017-06-16T22:27:46.600Z,49.70
2017-06-16T22:30:12.984Z,49.70
2017-06-16T22:32:40.072Z,50.50
2017-06-16T22:35:06.375Z,49.80
2017-06-16T22:37:32.701Z,49.60
2017-06-16T22:39:59.899Z,49.80
2017-06-16T22:42:26.272Z,49.80
2017-06-16T22:44:53.356Z,49.80
2017-06-16T22:47:19.681Z,49.60
2017-06-16T22:49:46.024Z,49.80
2017-06-16T22:52:12.364Z,49.40
2017-06-16T22:54:38.695Z,48.30
2017-06-16T22:57:05.087Z,48.40
2017-06-16T22:59:32.248Z,47.90
2017-06-16T23:01:58.571Z,47.90
2017-06-16T23:04:24.892Z,47.80
2017-06-16T23:06:51.972Z,47.50
2017-06-16T23:09:18.281Z,47.50
2017-06-16T23:11:44.619Z,47.80
2017-06-16T23:14:10.938Z,47.80
2017-06-16T23:16:38.071Z,48.00
2017-06-16T23:19:04.395Z,48.50
2017-06-16T23:21:30.731Z,47.70
2017-06-16T23:23:57.051Z,47.40
2017-06-16T23:26:23.383Z,47.50
2017-06-16T23:28:49.709Z,47.40
2017-06-16T23:31:16.416Z,47.60
2017-06-16T23:33:42.735Z,47.40
2017-06-16T23:36:09.180Z,47.50
2017-06-16T23:38:35.600Z,47.80
2017-06-16T23:41:01.922Z,48.30
2017-06-16T23:43:28.256Z,48.50
2017-06-16T23:45:54.573Z,48.50
2017-06-16T23:48:20.916Z,48.50
2017-06-16T23:50:47.351Z,48.60
2017-06-16T23:53:13.692Z,48.80
2017-06-16T23:55:40.004Z,48.90
2017-06-16T23:58:06.360Z,49.00
